Time;durP1;ratioP1;P1;durP2;ratioP2;P2;SDS_P1;SDS_P2;PMS_P1;PMS_P2;Temp;Humidity;BMP_temperature;BMP_pressure;BME280_temperature;BME280_humidity;BME280_pressure;Samples;Min_cycle;Max_cycle;Signal;HPM_P1;HPM_P2
2022/03/05 00:00:21;;;;;;;;;;;5.60;44.30;;;;;;5016965;28;20354;-60
2022/03/05 00:02:47;;;;;;;;;;;5.60;44.10;;;;;;5016833;28;19917;-59
2022/03/05 00:05:13;;;;;;;;;;;5.50;44.10;;;;;;5016691;28;19910;-59
2022/03/05 00:07:39;;;;;;;;;;;5.40;44.30;;;;;;5016624;28;20370;-59
2022/03/05 00:10:05;;;;;;;;;;;5.50;44.40;;;;;;5016478;28;20281;-59
2022/03/05 00:12:30;;;;;;;;;;;5.60;44.20;;;;;;5016952;28;19909;-59
2022/03/05 00:14:56;;;;;;;;;;;5.70;43.80;;;;;;5016637;28;19909;-59
2022/03/05 00:17:22;;;;;;;;;;;5.70;43.80;;;;;;5016191;28;19917;-60
2022/03/05 00:19:47;;;;;;;;;;;5.80;43.80;;;;;;5016618;28;19914;-58
2022/03/05 00:22:13;;;;;;;;;;;5.80;43.60;;;;;;5016352;28;20308;-58
2022/03/05 00:24:39;;;;;;;;;;;5.70;43.90;;;;;;5016771;28;19917;-59
2022/03/05 00:27:04;;;;;;;;;;;5.60;44.30;;;;;;5016153;28;19991;-59
2022/03/05 00:29:30;;;;;;;;;;;5.60;45.10;;;;;;5016558;28;19909;-59
2022/03/05 00:31:55;;;;;;;;;;;5.40;44.80;;;;;;5016427;28;20004;-59
2022/03/05 00:34:21;;;;;;;;;;;5.50;44.80;;;;;;5016147;28;19967;-59
2022/03/05 00:36:47;;;;;;;;;;;5.50;44.70;;;;;;5015882;28;20385;-59
2022/03/05 00:39:12;;;;;;;;;;;5.60;44.60;;;;;;4998443;28;19932;-59
2022/03/05 00:41:38;;;;;;;;;;;5.60;44.50;;;;;;5015892;28;19909;-59
2022/03/05 00:44:04;;;;;;;;;;;5.50;44.60;;;;;;5016204;28;20286;-57
2022/03/05 00:46:29;;;;;;;;;;;5.50;44.70;;;;;;5015884;28;19909;-58
2022/03/05 00:48:55;;;;;;;;;;;5.50;44.80;;;;;;5015938;28;20358;-59
2022/03/05 00:51:21;;;;;;;;;;;5.50;45.00;;;;;;5015776;28;20214;-59
2022/03/05 00:53:46;;;;;;;;;;;5.30;45.90;;;;;;5015589;28;20358;-60
2022/03/05 00:56:12;;;;;;;;;;;5.30;45.50;;;;;;5015582;28;19963;-60
2022/03/05 00:58:37;;;;;;;;;;;5.40;45.60;;;;;;5015628;28;20387;-60
2022/03/05 01:01:03;;;;;;;;;;;5.40;45.30;;;;;;5015712;28;19956;-59
2022/03/05 01:03:28;;;;;;;;;;;5.50;45.10;;;;;;5015321;28;19909;-59
2022/03/05 01:05:54;;;;;;;;;;;5.60;45.20;;;;;;5015275;28;19945;-60
2022/03/05 01:08:20;;;;;;;;;;;5.60;45.20;;;;;;5015102;28;19913;-60
2022/03/05 01:10:46;;;;;;;;;;;5.50;45.20;;;;;;5016125;28;19910;-60
2022/03/05 01:13:11;;;;;;;;;;;5.40;45.50;;;;;;5015373;28;20408;-59
2022/03/05 01:15:37;;;;;;;;;;;5.30;45.40;;;;;;5015390;28;19924;-59
2022/03/05 01:18:03;;;;;;;;;;;5.20;45.80;;;;;;5015284;28;20396;-60
2022/03/05 01:20:28;;;;;;;;;;;5.30;45.90;;;;;;5015230;28;19943;-59
2022/03/05 01:22:54;;;;;;;;;;;5.30;45.60;;;;;;5015343;28;19910;-59
2022/03/05 01:25:19;;;;;;;;;;;5.30;45.40;;;;;;5014905;28;19909;-59
2022/03/05 01:27:45;;;;;;;;;;;5.30;45.60;;;;;;5015179;28;20357;-58
2022/03/05 01:30:11;;;;;;;;;;;5.30;45.70;;;;;;5015109;28;19972;-58
2022/03/05 01:32:37;;;;;;;;;;;5.20;45.90;;;;;;5015288;28;19956;-60
2022/03/05 01:35:02;;;;;;;;;;;5.20;45.70;;;;;;5015496;28;19976;-58
2022/03/05 01:37:28;;;;;;;;;;;5.30;45.50;;;;;;5015074;28;19924;-59
2022/03/05 01:39:53;;;;;;;;;;;5.30;45.60;;;;;;5014851;28;19910;-59
2022/03/05 01:42:22;;;;;;;;;;;5.30;45.40;;;;;;5014926;28;19910;-59
2022/03/05 01:44:49;;;;;;;;;;;5.40;45.10;;;;;;5014686;28;20388;-60
2022/03/05 01:47:14;;;;;;;;;;;5.40;44.60;;;;;;5014793;28;19941;-58
2022/03/05 01:49:40;;;;;;;;;;;5.50;44.40;;;;;;5014701;28;20349;-58
2022/03/05 01:52:05;;;;;;;;;;;5.40;44.40;;;;;;5014926;28;20009;-58
2022/03/05 01:54:31;;;;;;;;;;;5.50;44.50;;;;;;5014700;28;19916;-60
2022/03/05 01:56:57;;;;;;;;;;;5.30;44.50;;;;;;5014357;28;20019;-59
2022/03/05 01:59:23;;;;;;;;;;;5.20;44.80;;;;;;5014552;28;19910;-60
2022/03/05 02:01:49;;;;;;;;;;;5.30;44.70;;;;;;5014635;28;19916;-60
2022/03/05 02:04:15;;;;;;;;;;;5.30;44.70;;;;;;5014492;28;20353;-60
2022/03/05 02:06:41;;;;;;;;;;;5.20;44.70;;;;;;5014381;28;19910;-59
2022/03/05 02:09:06;;;;;;;;;;;5.30;44.50;;;;;;5014331;28;19913;-60
2022/03/05 02:11:32;;;;;;;;;;;5.30;44.50;;;;;;5014579;28;19909;-60
2022/03/05 02:13:58;;;;;;;;;;;5.30;44.60;;;;;;5014537;28;20361;-59
2022/03/05 02:16:23;;;;;;;;;;;5.20;44.60;;;;;;5014170;28;20277;-59
2022/03/05 02:18:50;;;;;;;;;;;5.20;44.90;;;;;;5013222;28;19944;-59
2022/03/05 02:21:16;;;;;;;;;;;5.30;44.50;;;;;;5014335;28;19949;-57
2022/03/05 02:23:42;;;;;;;;;;;5.40;44.40;;;;;;5014089;28;20262;-58
2022/03/05 02:26:07;;;;;;;;;;;5.40;44.20;;;;;;5014274;28;19909;-60
2022/03/05 02:28:35;;;;;;;;;;;5.30;43.90;;;;;;5014347;28;20000;-58
2022/03/05 02:31:01;;;;;;;;;;;5.20;44.20;;;;;;5014326;28;20000;-59
2022/03/05 02:33:27;;;;;;;;;;;5.20;44.40;;;;;;5014058;28;19945;-58
2022/03/05 02:35:52;;;;;;;;;;;5.10;44.50;;;;;;5014190;28;19917;-59
2022/03/05 02:38:19;;;;;;;;;;;5.10;44.60;;;;;;5014188;28;20345;-59
2022/03/05 02:40:45;;;;;;;;;;;5.00;45.30;;;;;;5013924;28;19909;-60
2022/03/05 02:43:11;;;;;;;;;;;5.10;44.70;;;;;;5014087;28;19910;-59
2022/03/05 02:45:37;;;;;;;;;;;5.20;44.20;;;;;;5013832;28;19909;-59
2022/03/05 02:48:04;;;;;;;;;;;5.20;44.20;;;;;;5013981;28;20246;-58
2022/03/05 02:50:29;;;;;;;;;;;5.30;44.00;;;;;;5014107;28;19910;-58
2022/03/05 02:52:55;;;;;;;;;;;5.30;44.00;;;;;;5013655;28;19917;-58
2022/03/05 02:55:21;;;;;;;;;;;5.40;43.90;;;;;;5013555;28;19909;-60
2022/03/05 02:57:46;;;;;;;;;;;5.50;43.70;;;;;;5013930;28;19970;-58
2022/03/05 03:00:12;;;;;;;;;;;5.60;43.30;;;;;;5013798;28;19916;-58
2022/03/05 03:02:38;;;;;;;;;;;5.50;43.30;;;;;;5013847;28;19910;-60
2022/03/05 03:05:04;;;;;;;;;;;5.40;43.70;;;;;;5013705;28;20270;-59
2022/03/05 03:07:30;;;;;;;;;;;5.40;43.70;;;;;;5013480;28;19910;-59
2022/03/05 03:09:56;;;;;;;;;;;5.40;43.90;;;;;;5013768;28;19956;-59
2022/03/05 03:12:22;;;;;;;;;;;5.40;43.90;;;;;;5013644;28;20374;-59
2022/03/05 03:14:47;;;;;;;;;;;5.40;44.20;;;;;;5013687;28;19971;-59
2022/03/05 03:17:13;;;;;;;;;;;5.40;44.40;;;;;;5013772;28;19945;-59
2022/03/05 03:19:38;;;;;;;;;;;5.20;44.70;;;;;;5013298;28;20389;-60
2022/03/05 03:22:04;;;;;;;;;;;5.20;45.10;;;;;;4996163;28;20372;-59
2022/03/05 03:24:30;;;;;;;;;;;5.20;45.10;;;;;;5013922;28;20407;-59
2022/03/05 03:26:55;;;;;;;;;;;5.30;45.00;;;;;;5013800;28;19969;-58
2022/03/05 03:29:21;;;;;;;;;;;5.40;44.90;;;;;;5013506;28;20379;-59
2022/03/05 03:31:46;;;;;;;;;;;5.30;45.20;;;;;;5017408;28;20392;-59
2022/03/05 03:34:12;;;;;;;;;;;5.20;45.30;;;;;;5017435;28;19909;-59
2022/03/05 03:36:37;;;;;;;;;;;5.30;45.30;;;;;;5017114;28;20412;-58
2022/03/05 03:39:03;;;;;;;;;;;5.40;45.00;;;;;;5017581;28;19910;-59
2022/03/05 03:41:29;;;;;;;;;;;5.50;45.00;;;;;;5017332;28;19909;-60
2022/03/05 03:43:55;;;;;;;;;;;5.40;44.80;;;;;;5017335;28;19914;-59
2022/03/05 03:46:20;;;;;;;;;;;5.40;44.90;;;;;;5017138;28;19909;-60
2022/03/05 03:48:46;;;;;;;;;;;5.50;44.80;;;;;;5017158;28;19909;-59
2022/03/05 03:51:11;;;;;;;;;;;5.40;44.70;;;;;;5017124;28;19916;-58
2022/03/05 03:53:37;;;;;;;;;;;5.30;45.00;;;;;;5017241;28;20388;-58
2022/03/05 03:56:03;;;;;;;;;;;5.30;45.40;;;;;;5016733;28;19941;-58
2022/03/05 03:58:28;;;;;;;;;;;5.30;45.30;;;;;;5017094;28;19909;-58
2022/03/05 04:00:54;;;;;;;;;;;5.30;45.20;;;;;;5017120;28;19914;-58
2022/03/05 04:03:19;;;;;;;;;;;5.40;45.30;;;;;;5016790;28;20004;-58
2022/03/05 04:05:45;;;;;;;;;;;5.10;45.40;;;;;;5016624;28;20388;-59
2022/03/05 04:10:55;;;;;;;;;;;5.00;45.90;;;;;;5016615;28;19921;-59
2022/03/05 04:13:20;;;;;;;;;;;5.10;46.20;;;;;;5016731;28;20326;-58
2022/03/05 04:15:46;;;;;;;;;;;5.00;46.60;;;;;;5016520;28;20276;-59
2022/03/05 04:18:12;;;;;;;;;;;5.00;46.70;;;;;;5016369;28;19921;-59
2022/03/05 04:20:38;;;;;;;;;;;5.00;46.90;;;;;;5016604;28;19913;-59
2022/03/05 04:23:03;;;;;;;;;;;5.10;47.00;;;;;;5016385;28;20004;-59
2022/03/05 04:25:29;;;;;;;;;;;5.10;46.60;;;;;;5016480;28;20366;-59
2022/03/05 04:27:55;;;;;;;;;;;5.20;46.30;;;;;;5016684;28;19913;-60
2022/03/05 04:30:20;;;;;;;;;;;5.00;46.70;;;;;;5016456;28;19955;-59
2022/03/05 04:32:46;;;;;;;;;;;5.10;47.60;;;;;;5016232;28;19910;-60
2022/03/05 04:35:11;;;;;;;;;;;5.10;46.90;;;;;;5016199;28;19977;-60
2022/03/05 04:37:37;;;;;;;;;;;5.10;47.00;;;;;;4998594;28;19917;-60
2022/03/05 04:40:04;;;;;;;;;;;5.10;47.00;;;;;;5016068;28;19910;-60
2022/03/05 04:42:29;;;;;;;;;;;5.20;46.80;;;;;;5015094;28;19945;-60
2022/03/05 04:44:55;;;;;;;;;;;5.10;46.70;;;;;;5016235;28;19913;-60
2022/03/05 04:47:20;;;;;;;;;;;5.00;47.10;;;;;;4998541;28;19909;-60
2022/03/05 04:49:46;;;;;;;;;;;5.10;46.80;;;;;;5016261;28;19910;-60
2022/03/05 04:52:12;;;;;;;;;;;4.90;47.00;;;;;;5016261;28;19944;-60
2022/03/05 04:54:37;;;;;;;;;;;4.80;47.30;;;;;;5016435;28;19955;-59
2022/03/05 04:57:03;;;;;;;;;;;4.80;47.60;;;;;;5015872;28;19917;-58
2022/03/05 04:59:29;;;;;;;;;;;4.60;47.90;;;;;;5015960;28;19909;-59
2022/03/05 05:01:56;;;;;;;;;;;4.60;48.20;;;;;;5016105;28;19914;-58
2022/03/05 05:04:22;;;;;;;;;;;4.80;47.80;;;;;;5016059;28;19910;-61
2022/03/05 05:06:48;;;;;;;;;;;4.80;47.60;;;;;;5015730;28;19910;-59
2022/03/05 05:09:13;;;;;;;;;;;4.80;47.60;;;;;;5015687;28;19964;-60
2022/03/05 05:11:39;;;;;;;;;;;4.70;47.90;;;;;;5015731;28;19956;-60
2022/03/05 05:14:05;;;;;;;;;;;4.70;47.90;;;;;;5015672;28;19913;-60
2022/03/05 05:16:30;;;;;;;;;;;4.80;47.70;;;;;;5015336;28;19921;-60
2022/03/05 05:21:40;;;;;;;;;;;4.70;47.80;;;;;;5015534;28;19949;-60
2022/03/05 05:24:05;;;;;;;;;;;4.70;48.10;;;;;;5015385;28;19914;-59
2022/03/05 05:26:31;;;;;;;;;;;4.70;47.80;;;;;;5015077;28;19916;-60
2022/03/05 05:28:56;;;;;;;;;;;4.60;48.30;;;;;;5015556;28;19913;-59
2022/03/05 05:31:22;;;;;;;;;;;4.50;48.60;;;;;;5015275;28;20440;-59
2022/03/05 05:33:49;;;;;;;;;;;4.60;48.70;;;;;;5015010;28;20357;-59
2022/03/05 05:36:14;;;;;;;;;;;4.50;48.90;;;;;;5014843;28;19917;-60
2022/03/05 05:38:40;;;;;;;;;;;4.60;48.80;;;;;;5014864;28;19955;-59
2022/03/05 05:41:07;;;;;;;;;;;4.80;48.40;;;;;;5015028;28;19914;-59
2022/03/05 05:43:32;;;;;;;;;;;4.70;48.20;;;;;;5014916;28;19910;-59
2022/03/05 05:45:58;;;;;;;;;;;4.80;48.30;;;;;;5015006;28;19916;-59
2022/03/05 05:48:23;;;;;;;;;;;4.60;48.50;;;;;;5015189;28;19910;-59
2022/03/05 05:50:49;;;;;;;;;;;4.50;48.80;;;;;;5015262;28;19999;-59
2022/03/05 05:53:14;;;;;;;;;;;4.50;49.00;;;;;;5014604;28;19909;-59
2022/03/05 05:55:40;;;;;;;;;;;4.60;48.90;;;;;;5014597;28;20395;-59
2022/03/05 05:58:06;;;;;;;;;;;4.60;49.10;;;;;;5014760;28;19914;-59
2022/03/05 06:00:31;;;;;;;;;;;4.60;49.00;;;;;;5014922;28;19909;-59
2022/03/05 06:02:57;;;;;;;;;;;4.60;48.90;;;;;;5014874;28;19910;-59
2022/03/05 06:05:22;;;;;;;;;;;4.60;48.80;;;;;;5014699;28;19936;-59
2022/03/05 06:07:48;;;;;;;;;;;4.70;48.60;;;;;;5014662;28;19979;-60
2022/03/05 06:10:14;;;;;;;;;;;4.80;48.30;;;;;;5014688;28;19917;-60
2022/03/05 06:12:39;;;;;;;;;;;4.90;48.10;;;;;;5014626;28;19909;-60
2022/03/05 06:15:08;;;;;;;;;;;5.00;48.70;;;;;;5014600;28;19914;-59
2022/03/05 06:17:34;;;;;;;;;;;4.90;47.90;;;;;;4997289;28;19917;-59
2022/03/05 06:20:00;;;;;;;;;;;4.80;48.30;;;;;;5014379;28;19976;-59
2022/03/05 06:22:25;;;;;;;;;;;4.70;48.50;;;;;;5014606;28;19913;-59
2022/03/05 06:24:51;;;;;;;;;;;4.70;48.50;;;;;;5014418;28;20261;-59
2022/03/05 06:27:16;;;;;;;;;;;4.80;48.10;;;;;;5014272;28;20349;-59
2022/03/05 06:29:42;;;;;;;;;;;4.90;48.30;;;;;;5014135;28;19909;-59
2022/03/05 06:32:08;;;;;;;;;;;4.90;47.90;;;;;;5014380;28;19956;-60
2022/03/05 06:34:33;;;;;;;;;;;4.90;48.00;;;;;;5014491;28;19917;-60
2022/03/05 06:37:00;;;;;;;;;;;4.80;48.20;;;;;;4996306;28;19926;-59
2022/03/05 06:39:26;;;;;;;;;;;4.80;48.40;;;;;;5014176;28;19984;-59
2022/03/05 06:41:51;;;;;;;;;;;4.80;47.50;;;;;;5014342;28;19910;-59
2022/03/05 06:44:17;;;;;;;;;;;5.00;47.50;;;;;;5014223;28;19913;-59
2022/03/05 06:46:43;;;;;;;;;;;5.00;47.60;;;;;;5013920;28;19914;-59
2022/03/05 06:49:08;;;;;;;;;;;5.10;47.50;;;;;;5014092;28;19909;-61
2022/03/05 06:51:34;;;;;;;;;;;5.10;47.50;;;;;;5014175;28;19914;-61
2022/03/05 06:53:59;;;;;;;;;;;5.00;47.70;;;;;;5013931;28;19909;-62
2022/03/05 06:56:25;;;;;;;;;;;5.20;57.10;;;;;;5013569;28;19921;-62
2022/03/05 06:58:50;;;;;;;;;;;5.30;49.30;;;;;;5013661;28;19964;-61
2022/03/05 07:01:16;;;;;;;;;;;5.50;55.10;;;;;;5014053;28;19909;-59
2022/03/05 07:03:41;;;;;;;;;;;6.00;50.50;;;;;;5013940;28;19910;-61
2022/03/05 07:06:07;;;;;;;;;;;6.40;46.60;;;;;;5019881;28;19991;-60
2022/03/05 07:08:33;;;;;;;;;;;6.90;49.10;;;;;;5020267;28;19909;-60
2022/03/05 07:10:58;;;;;;;;;;;7.00;44.10;;;;;;5002591;28;19916;-59
2022/03/05 07:13:24;;;;;;;;;;;7.20;45.10;;;;;;5020047;28;20312;-60
2022/03/05 07:15:50;;;;;;;;;;;7.50;43.70;;;;;;5020307;28;19975;-60
2022/03/05 07:18:15;;;;;;;;;;;7.40;45.10;;;;;;5020254;28;19925;-60
2022/03/05 07:20:41;;;;;;;;;;;7.90;43.60;;;;;;5020263;28;20375;-61
2022/03/05 07:23:07;;;;;;;;;;;8.40;41.60;;;;;;5020079;28;19984;-61
2022/03/05 07:25:39;;;;;;;;;;;8.70;43.00;;;;;;5020157;28;19916;-60
2022/03/05 07:28:05;;;;;;;;;;;9.10;41.40;;;;;;5020163;28;19910;-61
2022/03/05 07:30:31;;;;;;;;;;;8.90;42.20;;;;;;5020095;28;19909;-59
2022/03/05 07:32:57;;;;;;;;;;;9.10;40.60;;;;;;5002140;28;20016;-61
2022/03/05 07:35:23;;;;;;;;;;;9.50;39.10;;;;;;5020054;28;20277;-59
2022/03/05 07:37:48;;;;;;;;;;;9.20;37.50;;;;;;5019777;28;19918;-59
2022/03/05 07:40:14;;;;;;;;;;;8.50;38.60;;;;;;5019998;28;19917;-59
2022/03/05 07:42:39;;;;;;;;;;;8.30;39.20;;;;;;5019952;28;19955;-60
2022/03/05 07:45:05;;;;;;;;;;;8.20;39.90;;;;;;5020116;28;19910;-58
2022/03/05 07:47:31;;;;;;;;;;;8.10;39.90;;;;;;5020092;28;19910;-59
2022/03/05 07:49:56;;;;;;;;;;;8.10;40.10;;;;;;5019812;28;19945;-60
2022/03/05 07:52:22;;;;;;;;;;;7.80;40.50;;;;;;5019650;28;19909;-63
2022/03/05 07:54:47;;;;;;;;;;;7.90;40.50;;;;;;5019744;28;19910;-59
2022/03/05 07:57:13;;;;;;;;;;;7.70;40.50;;;;;;5019796;28;19964;-61
2022/03/05 07:59:39;;;;;;;;;;;7.60;41.60;;;;;;5019833;28;19963;-60
2022/03/05 08:02:05;;;;;;;;;;;7.60;41.60;;;;;;5019820;28;19910;-61
2022/03/05 08:04:30;;;;;;;;;;;7.70;41.20;;;;;;5019187;28;20285;-64
2022/03/05 08:06:56;;;;;;;;;;;7.60;41.20;;;;;;5019394;28;19910;-60
2022/03/05 08:09:22;;;;;;;;;;;7.50;40.50;;;;;;5019435;28;19964;-64
2022/03/05 08:11:47;;;;;;;;;;;7.40;40.90;;;;;;5019561;28;20000;-59
2022/03/05 08:14:13;;;;;;;;;;;7.30;41.50;;;;;;5019752;28;20380;-59
2022/03/05 08:16:38;;;;;;;;;;;7.40;41.40;;;;;;5017546;28;19976;-60
2022/03/05 08:19:04;;;;;;;;;;;7.50;42.10;;;;;;5016383;28;19922;-58
2022/03/05 08:21:29;;;;;;;;;;;7.50;41.00;;;;;;5016443;28;20339;-58
2022/03/05 08:23:56;;;;;;;;;;;7.60;41.50;;;;;;5016445;28;20431;-58
2022/03/05 08:26:21;;;;;;;;;;;7.80;40.10;;;;;;5016047;28;20358;-57
2022/03/05 08:28:47;;;;;;;;;;;7.80;40.10;;;;;;5016511;28;19925;-59
2022/03/05 08:31:13;;;;;;;;;;;7.80;40.00;;;;;;5016539;28;19910;-62
2022/03/05 08:33:39;;;;;;;;;;;8.10;39.20;;;;;;5016677;28;19909;-57
2022/03/05 08:36:05;;;;;;;;;;;8.30;38.80;;;;;;5016044;28;19928;-57
2022/03/05 08:38:31;;;;;;;;;;;8.70;38.80;;;;;;5016394;28;19910;-57
2022/03/05 08:41:00;;;;;;;;;;;8.80;37.50;;;;;;5016384;28;20342;-57
2022/03/05 08:43:26;;;;;;;;;;;8.80;37.40;;;;;;5016132;28;20479;-57
2022/03/05 08:45:51;;;;;;;;;;;8.70;37.70;;;;;;5016013;28;20012;-57
2022/03/05 08:48:17;;;;;;;;;;;8.70;37.90;;;;;;5016214;28;19909;-55
2022/03/05 08:50:43;;;;;;;;;;;8.50;37.50;;;;;;5016175;28;19975;-55
2022/03/05 08:53:09;;;;;;;;;;;8.50;37.80;;;;;;5015722;28;19909;-57
2022/03/05 08:55:34;;;;;;;;;;;8.70;37.40;;;;;;5015652;28;19959;-57
2022/03/05 08:58:00;;;;;;;;;;;9.00;36.40;;;;;;5015789;28;19964;-54
2022/03/05 09:00:26;;;;;;;;;;;8.90;36.50;;;;;;5016081;28;20274;-56
2022/03/05 09:02:51;;;;;;;;;;;8.50;35.80;;;;;;5015695;28;19910;-55
2022/03/05 09:05:17;;;;;;;;;;;8.50;36.90;;;;;;5015498;28;19909;-55
2022/03/05 09:07:43;;;;;;;;;;;8.50;36.90;;;;;;4997882;28;19933;-56
2022/03/05 09:10:09;;;;;;;;;;;8.30;36.80;;;;;;5015294;28;19909;-54
2022/03/05 09:12:35;;;;;;;;;;;8.20;37.20;;;;;;5009542;28;20337;-54
2022/03/05 09:15:01;;;;;;;;;;;8.20;37.20;;;;;;4995372;28;19960;-57
2022/03/05 09:17:26;;;;;;;;;;;8.20;36.70;;;;;;4995310;28;19963;-54
2022/03/05 09:19:53;;;;;;;;;;;8.20;36.40;;;;;;4995202;28;20346;-56
2022/03/05 09:22:19;;;;;;;;;;;8.50;37.10;;;;;;4995189;28;20476;-55
2022/03/05 09:24:45;;;;;;;;;;;8.50;36.70;;;;;;4995036;28;19997;-57
2022/03/05 09:27:10;;;;;;;;;;;8.70;36.40;;;;;;4994905;28;19917;-54
2022/03/05 09:29:36;;;;;;;;;;;8.90;36.50;;;;;;4995082;28;19913;-56
2022/03/05 09:32:02;;;;;;;;;;;9.00;35.50;;;;;;5007127;28;19913;-55
2022/03/05 09:34:28;;;;;;;;;;;8.90;34.50;;;;;;5014609;28;19996;-55
2022/03/05 09:36:54;;;;;;;;;;;8.90;35.10;;;;;;5014347;28;20008;-55
2022/03/05 09:39:20;;;;;;;;;;;8.80;34.30;;;;;;5014361;28;19963;-56
2022/03/05 09:41:45;;;;;;;;;;;8.60;33.70;;;;;;5014522;28;20004;-56
2022/03/05 09:44:11;;;;;;;;;;;8.50;34.70;;;;;;5014740;28;19910;-55
2022/03/05 09:46:37;;;;;;;;;;;8.40;35.50;;;;;;5014327;28;20285;-56
2022/03/05 09:49:03;;;;;;;;;;;8.50;35.70;;;;;;5014466;28;20043;-56
2022/03/05 09:51:29;;;;;;;;;;;8.40;35.00;;;;;;5014411;28;19909;-56
2022/03/05 09:53:55;;;;;;;;;;;8.40;36.00;;;;;;5014274;28;19926;-56
2022/03/05 09:56:20;;;;;;;;;;;8.50;35.50;;;;;;5014172;28;20015;-56
2022/03/05 09:58:50;;;;;;;;;;;8.50;35.80;;;;;;5014411;28;19914;-56
2022/03/05 10:01:16;;;;;;;;;;;8.30;36.40;;;;;;5014374;28;19913;-56
2022/03/05 10:03:46;;;;;;;;;;;8.30;36.20;;;;;;5013970;28;20335;-56
2022/03/05 10:06:19;;;;;;;;;;;8.20;36.40;;;;;;5014115;28;19913;-57
2022/03/05 10:08:45;;;;;;;;;;;8.20;35.80;;;;;;5014046;28;20284;-55
2022/03/05 10:11:12;;;;;;;;;;;8.20;36.20;;;;;;5014131;28;19910;-57
2022/03/05 10:13:38;;;;;;;;;;;8.30;36.70;;;;;;5013976;28;20345;-58
2022/03/05 10:16:24;;;;;;;;;;;8.20;37.20;;;;;;5013435;28;20365;-57
2022/03/05 10:18:50;;;;;;;;;;;8.40;36.90;;;;;;4993498;28;20350;-57
2022/03/05 10:21:16;;;;;;;;;;;8.50;37.20;;;;;;4994052;28;19948;-57
2022/03/05 10:23:47;;;;;;;;;;;8.70;37.00;;;;;;4994177;28;20282;-56
2022/03/05 10:26:14;;;;;;;;;;;8.80;36.50;;;;;;4994196;28;19937;-56
2022/03/05 10:28:40;;;;;;;;;;;8.80;35.90;;;;;;4993102;28;19960;-57
2022/03/05 10:31:08;;;;;;;;;;;8.50;35.50;;;;;;4992850;28;19945;-57
2022/03/05 10:33:35;;;;;;;;;;;8.30;35.60;;;;;;4993921;28;19956;-57
2022/03/05 10:36:08;;;;;;;;;;;8.00;35.70;;;;;;4994350;28;19976;-57
2022/03/05 10:38:43;;;;;;;;;;;8.10;35.80;;;;;;4994080;28;19913;-56
2022/03/05 10:41:08;;;;;;;;;;;7.90;36.20;;;;;;4993502;28;19910;-56
2022/03/05 10:43:34;;;;;;;;;;;8.00;36.50;;;;;;4994095;28;19921;-58
2022/03/05 10:45:59;;;;;;;;;;;8.00;35.90;;;;;;4993686;28;19909;-57
2022/03/05 10:48:25;;;;;;;;;;;8.10;35.80;;;;;;4994101;28;19971;-57
2022/03/05 10:50:58;;;;;;;;;;;8.30;34.80;;;;;;4992563;28;19910;-58
2022/03/05 10:53:34;;;;;;;;;;;8.10;34.70;;;;;;4994108;28;19910;-57
2022/03/05 10:56:18;;;;;;;;;;;7.80;35.80;;;;;;4993679;28;19940;-56
2022/03/05 10:58:44;;;;;;;;;;;7.80;36.20;;;;;;4993665;28;19914;-57
2022/03/05 11:01:10;;;;;;;;;;;7.80;36.70;;;;;;4993848;28;19917;-56
2022/03/05 11:03:35;;;;;;;;;;;7.80;36.90;;;;;;4993909;28;20412;-56
2022/03/05 11:06:01;;;;;;;;;;;7.90;37.60;;;;;;4993660;28;19910;-56
2022/03/05 11:08:27;;;;;;;;;;;7.90;37.40;;;;;;4993715;28;19965;-59
2022/03/05 11:10:53;;;;;;;;;;;8.00;37.80;;;;;;4993744;28;19987;-58
2022/03/05 11:13:19;;;;;;;;;;;8.10;38.40;;;;;;4993634;28;19910;-58
2022/03/05 11:15:45;;;;;;;;;;;8.20;38.20;;;;;;4992181;28;19910;-59
2022/03/05 11:18:11;;;;;;;;;;;8.10;37.50;;;;;;4993440;28;19926;-56
2022/03/05 11:20:37;;;;;;;;;;;8.00;37.00;;;;;;4993615;28;20452;-57
2022/03/05 11:23:03;;;;;;;;;;;8.00;37.00;;;;;;4993412;28;19956;-57
2022/03/05 11:25:31;;;;;;;;;;;8.10;36.70;;;;;;4992419;28;19917;-57
2022/03/05 11:28:05;;;;;;;;;;;8.00;37.00;;;;;;4991806;28;20271;-56
2022/03/05 11:30:41;;;;;;;;;;;7.90;37.50;;;;;;4993406;28;19937;-58
2022/03/05 11:33:11;;;;;;;;;;;7.90;38.00;;;;;;4993638;28;20298;-56
2022/03/05 11:35:42;;;;;;;;;;;7.80;38.10;;;;;;4993278;28;19914;-54
2022/03/05 11:38:28;;;;;;;;;;;7.70;38.40;;;;;;4993420;28;19910;-56
2022/03/05 11:40:54;;;;;;;;;;;7.90;38.80;;;;;;4979713;28;20310;-56
2022/03/05 11:43:21;;;;;;;;;;;8.00;38.00;;;;;;4993587;28;19910;-55
2022/03/05 11:45:51;;;;;;;;;;;8.10;38.80;;;;;;4993142;28;19918;-58
2022/03/05 11:48:25;;;;;;;;;;;8.10;37.70;;;;;;4993208;28;20008;-54
2022/03/05 11:50:54;;;;;;;;;;;8.20;38.10;;;;;;4994121;28;19991;-56
2022/03/05 11:53:20;;;;;;;;;;;8.30;37.90;;;;;;4996781;28;19917;-56
2022/03/05 11:55:46;;;;;;;;;;;8.30;37.90;;;;;;4996755;28;19914;-59
2022/03/05 11:58:12;;;;;;;;;;;8.30;37.20;;;;;;4997129;28;19909;-56
2022/03/05 12:00:38;;;;;;;;;;;8.30;36.50;;;;;;4996848;28;19909;-57
2022/03/05 12:03:04;;;;;;;;;;;8.60;36.10;;;;;;4996821;28;19920;-56
2022/03/05 12:05:38;;;;;;;;;;;8.60;35.80;;;;;;4996746;28;20251;-56
2022/03/05 12:08:04;;;;;;;;;;;8.60;36.30;;;;;;4997008;28;19980;-57
2022/03/05 12:10:30;;;;;;;;;;;8.60;36.40;;;;;;4996800;28;20277;-56
2022/03/05 12:12:56;;;;;;;;;;;8.80;36.40;;;;;;4996752;28;19917;-55
2022/03/05 12:15:47;;;;;;;;;;;9.00;35.80;;;;;;4996680;28;19916;-57
2022/03/05 12:18:14;;;;;;;;;;;9.00;35.40;;;;;;4992538;28;19921;-57
2022/03/05 12:20:42;;;;;;;;;;;9.10;35.30;;;;;;4996427;28;19914;-56
2022/03/05 12:23:15;;;;;;;;;;;8.70;35.00;;;;;;4996615;28;19914;-57
2022/03/05 12:25:42;;;;;;;;;;;8.70;35.80;;;;;;4996423;28;19910;-59
2022/03/05 12:28:18;;;;;;;;;;;8.80;35.70;;;;;;4996467;28;19910;-55
2022/03/05 12:30:44;;;;;;;;;;;8.60;36.20;;;;;;4996523;28;20061;-55
2022/03/05 12:33:14;;;;;;;;;;;8.50;35.70;;;;;;4996405;28;20338;-58
2022/03/05 12:35:41;;;;;;;;;;;8.50;36.50;;;;;;4996235;28;19910;-52
2022/03/05 12:38:07;;;;;;;;;;;8.70;35.90;;;;;;4996325;28;19964;-55
2022/03/05 12:40:32;;;;;;;;;;;8.50;35.80;;;;;;4996281;28;19917;-55
2022/03/05 12:42:59;;;;;;;;;;;8.60;36.60;;;;;;4996107;28;19910;-58
2022/03/05 12:45:25;;;;;;;;;;;8.80;36.20;;;;;;4996229;28;19910;-56
2022/03/05 12:48:08;;;;;;;;;;;8.80;35.90;;;;;;4996164;28;19964;-54
2022/03/05 12:50:36;;;;;;;;;;;8.80;35.80;;;;;;4996103;28;19910;-55
2022/03/05 12:53:13;;;;;;;;;;;8.70;35.50;;;;;;4996089;28;19948;-54
2022/03/05 12:55:43;;;;;;;;;;;8.50;35.70;;;;;;4995789;28;19916;-54
2022/03/05 12:58:10;;;;;;;;;;;8.40;36.40;;;;;;4995808;28;20369;-53
2022/03/05 13:00:36;;;;;;;;;;;8.50;36.40;;;;;;4995918;28;19914;-54
2022/03/05 13:03:03;;;;;;;;;;;8.30;37.00;;;;;;4994802;28;19910;-54
2022/03/05 13:05:29;;;;;;;;;;;8.20;37.60;;;;;;4995943;28;19909;-53
2022/03/05 13:07:54;;;;;;;;;;;8.30;38.40;;;;;;4995754;28;20370;-53
2022/03/05 13:10:20;;;;;;;;;;;8.40;38.20;;;;;;4996840;28;20316;-53
2022/03/05 13:12:45;;;;;;;;;;;8.40;38.20;;;;;;4998001;28;19914;-53
2022/03/05 13:15:21;;;;;;;;;;;8.60;36.70;;;;;;4996450;28;20375;-51
2022/03/05 13:17:46;;;;;;;;;;;8.60;36.30;;;;;;4995207;28;19929;-53
2022/03/05 13:20:14;;;;;;;;;;;8.40;36.40;;;;;;4996125;28;19914;-53
2022/03/05 13:22:40;;;;;;;;;;;8.30;36.00;;;;;;4997873;28;19914;-53
2022/03/05 13:25:09;;;;;;;;;;;8.30;36.40;;;;;;4997544;28;20267;-59
2022/03/05 13:27:35;;;;;;;;;;;8.50;35.20;;;;;;4997333;28;19920;-53
2022/03/05 13:30:08;;;;;;;;;;;8.50;34.70;;;;;;4996591;28;19914;-55
2022/03/05 13:32:44;;;;;;;;;;;8.30;34.60;;;;;;4995980;28;19964;-59
2022/03/05 13:35:09;;;;;;;;;;;8.40;35.00;;;;;;4995571;28;19910;-53
2022/03/05 13:37:38;;;;;;;;;;;8.50;34.90;;;;;;4995396;28;19917;-54
2022/03/05 13:40:08;;;;;;;;;;;8.60;35.00;;;;;;4998926;28;20428;-54
2022/03/05 13:42:34;;;;;;;;;;;8.70;34.00;;;;;;5013918;28;20373;-55
2022/03/05 13:45:04;;;;;;;;;;;8.70;34.50;;;;;;5013978;28;20004;-54
2022/03/05 13:47:30;;;;;;;;;;;8.70;34.50;;;;;;5013829;28;20365;-54
2022/03/05 13:49:59;;;;;;;;;;;8.80;34.80;;;;;;5014536;28;19996;-56
2022/03/05 13:52:25;;;;;;;;;;;8.80;34.60;;;;;;5014257;28;19915;-53
2022/03/05 13:54:51;;;;;;;;;;;8.60;34.30;;;;;;5016283;28;19909;-54
2022/03/05 13:57:27;;;;;;;;;;;8.50;34.50;;;;;;5013314;28;19928;-55
2022/03/05 13:59:53;;;;;;;;;;;8.50;34.80;;;;;;5013606;28;20324;-54
2022/03/05 14:02:19;;;;;;;;;;;8.40;34.30;;;;;;5016104;28;19921;-54
2022/03/05 14:05:00;;;;;;;;;;;8.30;33.90;;;;;;5013664;28;19917;-53
2022/03/05 14:07:27;;;;;;;;;;;8.20;33.80;;;;;;5014567;28;19921;-54
2022/03/05 14:09:54;;;;;;;;;;;8.40;33.40;;;;;;5014394;28;20284;-58
2022/03/05 14:12:24;;;;;;;;;;;8.40;33.50;;;;;;5013873;28;19919;-55
2022/03/05 14:14:51;;;;;;;;;;;8.30;33.20;;;;;;5012352;28;20428;-55
2022/03/05 14:17:32;;;;;;;;;;;8.30;33.00;;;;;;5012338;28;20305;-56
2022/03/05 14:20:16;;;;;;;;;;;8.30;33.70;;;;;;5013572;28;19968;-54
2022/03/05 14:22:42;;;;;;;;;;;8.40;33.80;;;;;;5013067;28;19915;-59
2022/03/05 14:25:37;;;;;;;;;;;8.30;34.10;;;;;;5013319;28;19913;-54
2022/03/05 14:28:03;;;;;;;;;;;8.50;34.50;;;;;;5000678;28;19948;-78
2022/03/05 14:30:31;;;;;;;;;;;8.50;33.90;;;;;;5013680;28;19910;-76
2022/03/05 14:32:57;;;;;;;;;;;8.50;34.50;;;;;;5013474;28;19917;-77